sensor_id;sensor_type;location;lat;lon;timestamp;temperature;humidity
34460;DHT22;20704;51.260;22.558;2023-07-29T00:01:10;17.80;84.30
34460;DHT22;20704;51.260;22.558;2023-07-29T00:03:13;17.80;85.90
34460;DHT22;20704;51.260;22.558;2023-07-29T00:05:15;17.80;91.30
34460;DHT22;20704;51.260;22.558;2023-07-29T00:07:17;17.80;92.70
34460;DHT22;20704;51.260;22.558;2023-07-29T00:09:20;17.80;93.30
34460;DHT22;20704;51.260;22.558;2023-07-29T00:11:22;17.80;95.30
34460;DHT22;20704;51.260;22.558;2023-07-29T00:13:25;17.80;95.10
34460;DHT22;20704;51.260;22.558;2023-07-29T00:15:27;17.70;95.30
34460;DHT22;20704;51.260;22.558;2023-07-29T00:17:31;17.70;92.50
34460;DHT22;20704;51.260;22.558;2023-07-29T00:19:33;17.70;92.40
34460;DHT22;20704;51.260;22.558;2023-07-29T00:21:36;17.70;95.20
34460;DHT22;20704;51.260;22.558;2023-07-29T00:23:39;17.70;94.60
34460;DHT22;20704;51.260;22.558;2023-07-29T00:25:41;17.70;96.30
34460;DHT22;20704;51.260;22.558;2023-07-29T00:27:44;17.70;96.40
34460;DHT22;20704;51.260;22.558;2023-07-29T00:29:46;17.70;96.20
34460;DHT22;20704;51.260;22.558;2023-07-29T00:31:49;17.70;96.60
34460;DHT22;20704;51.260;22.558;2023-07-29T00:33:51;17.60;97.00
34460;DHT22;20704;51.260;22.558;2023-07-29T00:35:54;17.50;99.90
34460;DHT22;20704;51.260;22.558;2023-07-29T00:37:57;17.50;99.60
34460;DHT22;20704;51.260;22.558;2023-07-29T00:39:59;17.50;99.90
34460;DHT22;20704;51.260;22.558;2023-07-29T00:42:01;17.50;99.90
34460;DHT22;20704;51.260;22.558;2023-07-29T00:44:04;17.40;99.90
34460;DHT22;20704;51.260;22.558;2023-07-29T00:46:08;17.40;99.90
34460;DHT22;20704;51.260;22.558;2023-07-29T00:48:10;17.40;99.90
34460;DHT22;20704;51.260;22.558;2023-07-29T00:50:14;17.30;99.90
34460;DHT22;20704;51.260;22.558;2023-07-29T00:52:17;17.30;99.90
34460;DHT22;20704;51.260;22.558;2023-07-29T00:54:19;17.40;99.90
34460;DHT22;20704;51.260;22.558;2023-07-29T00:56:22;17.30;99.90
34460;DHT22;20704;51.260;22.558;2023-07-29T00:58:24;17.30;99.90
34460;DHT22;20704;51.260;22.558;2023-07-29T01:00:27;17.30;99.90
34460;DHT22;20704;51.260;22.558;2023-07-29T01:02:30;17.20;99.90
34460;DHT22;20704;51.260;22.558;2023-07-29T01:04:35;17.20;99.90
34460;DHT22;20704;51.260;22.558;2023-07-29T01:07:03;17.20;99.90
34460;DHT22;20704;51.260;22.558;2023-07-29T01:09:14;17.10;99.90
34460;DHT22;20704;51.260;22.558;2023-07-29T01:13:53;17.20;99.90
34460;DHT22;20704;51.260;22.558;2023-07-29T01:16:04;17.10;99.90
34460;DHT22;20704;51.260;22.558;2023-07-29T01:18:23;17.10;99.90
34460;DHT22;20704;51.260;22.558;2023-07-29T01:20:26;17.10;99.90
34460;DHT22;20704;51.260;22.558;2023-07-29T01:22:29;17.10;99.90
34460;DHT22;20704;51.260;22.558;2023-07-29T01:24:33;17.20;99.90
34460;DHT22;20704;51.260;22.558;2023-07-29T01:26:35;17.20;99.90
34460;DHT22;20704;51.260;22.558;2023-07-29T01:28:38;17.20;99.90
34460;DHT22;20704;51.260;22.558;2023-07-29T01:30:43;17.20;99.90
34460;DHT22;20704;51.260;22.558;2023-07-29T01:35:03;17.20;99.90
34460;DHT22;20704;51.260;22.558;2023-07-29T01:37:14;17.20;99.90
34460;DHT22;20704;51.260;22.558;2023-07-29T01:39:17;17.20;99.90
34460;DHT22;20704;51.260;22.558;2023-07-29T01:41:22;17.20;99.90
34460;DHT22;20704;51.260;22.558;2023-07-29T01:43:26;17.20;99.90
34460;DHT22;20704;51.260;22.558;2023-07-29T01:45:28;17.10;99.90
34460;DHT22;20704;51.260;22.558;2023-07-29T01:47:33;17.10;99.90
34460;DHT22;20704;51.260;22.558;2023-07-29T01:49:36;17.10;99.90
34460;DHT22;20704;51.260;22.558;2023-07-29T01:51:38;17.10;99.90
34460;DHT22;20704;51.260;22.558;2023-07-29T01:53:40;17.10;99.90
34460;DHT22;20704;51.260;22.558;2023-07-29T01:55:44;17.10;99.90
34460;DHT22;20704;51.260;22.558;2023-07-29T01:57:47;17.10;99.90
34460;DHT22;20704;51.260;22.558;2023-07-29T01:59:50;17.10;99.90
34460;DHT22;20704;51.260;22.558;2023-07-29T02:01:52;17.10;99.90
34460;DHT22;20704;51.260;22.558;2023-07-29T02:03:55;17.10;99.90
34460;DHT22;20704;51.260;22.558;2023-07-29T02:05:58;17.10;99.90
34460;DHT22;20704;51.260;22.558;2023-07-29T02:08:00;17.10;99.90
34460;DHT22;20704;51.260;22.558;2023-07-29T02:10:03;17.10;99.90
34460;DHT22;20704;51.260;22.558;2023-07-29T02:12:05;16.40;99.90
34460;DHT22;20704;51.260;22.558;2023-07-29T02:14:09;17.20;99.90
34460;DHT22;20704;51.260;22.558;2023-07-29T02:16:12;17.20;99.90
34460;DHT22;20704;51.260;22.558;2023-07-29T02:18:14;17.20;99.90
34460;DHT22;20704;51.260;22.558;2023-07-29T02:20:16;17.20;99.90
34460;DHT22;20704;51.260;22.558;2023-07-29T02:22:19;17.20;99.90
34460;DHT22;20704;51.260;22.558;2023-07-29T02:24:21;17.10;99.90
34460;DHT22;20704;51.260;22.558;2023-07-29T02:26:23;17.20;99.90
34460;DHT22;20704;51.260;22.558;2023-07-29T02:28:25;17.20;99.90
34460;DHT22;20704;51.260;22.558;2023-07-29T02:30:28;17.20;99.90
34460;DHT22;20704;51.260;22.558;2023-07-29T02:32:30;17.20;99.90
34460;DHT22;20704;51.260;22.558;2023-07-29T02:34:33;17.20;99.90
34460;DHT22;20704;51.260;22.558;2023-07-29T02:36:35;17.20;99.90
34460;DHT22;20704;51.260;22.558;2023-07-29T02:38:38;17.20;99.90
34460;DHT22;20704;51.260;22.558;2023-07-29T02:40:40;17.30;99.90
34460;DHT22;20704;51.260;22.558;2023-07-29T02:42:43;17.30;99.90
34460;DHT22;20704;51.260;22.558;2023-07-29T02:44:45;17.30;99.90
34460;DHT22;20704;51.260;22.558;2023-07-29T02:46:47;17.30;99.90
34460;DHT22;20704;51.260;22.558;2023-07-29T02:48:50;17.30;99.90
34460;DHT22;20704;51.260;22.558;2023-07-29T02:50:53;17.40;99.90
34460;DHT22;20704;51.260;22.558;2023-07-29T02:52:55;17.40;99.90
34460;DHT22;20704;51.260;22.558;2023-07-29T02:54:57;17.50;99.90
34460;DHT22;20704;51.260;22.558;2023-07-29T02:56:59;17.40;99.90
34460;DHT22;20704;51.260;22.558;2023-07-29T02:59:03;17.50;99.90
34460;DHT22;20704;51.260;22.558;2023-07-29T03:01:05;17.50;99.90
34460;DHT22;20704;51.260;22.558;2023-07-29T03:03:09;17.50;99.90
34460;DHT22;20704;51.260;22.558;2023-07-29T03:05:11;17.50;99.90
34460;DHT22;20704;51.260;22.558;2023-07-29T03:07:14;17.50;99.90
34460;DHT22;20704;51.260;22.558;2023-07-29T03:09:16;17.60;99.90
34460;DHT22;20704;51.260;22.558;2023-07-29T03:11:19;17.60;99.90
34460;DHT22;20704;51.260;22.558;2023-07-29T03:13:21;17.60;99.90
34460;DHT22;20704;51.260;22.558;2023-07-29T03:15:24;17.60;99.90
34460;DHT22;20704;51.260;22.558;2023-07-29T03:17:27;17.70;99.90
34460;DHT22;20704;51.260;22.558;2023-07-29T03:19:29;17.70;99.90
34460;DHT22;20704;51.260;22.558;2023-07-29T03:21:32;17.70;99.90
34460;DHT22;20704;51.260;22.558;2023-07-29T03:23:35;17.70;99.90
34460;DHT22;20704;51.260;22.558;2023-07-29T03:25:37;17.80;99.90
34460;DHT22;20704;51.260;22.558;2023-07-29T03:27:40;17.80;99.90
34460;DHT22;20704;51.260;22.558;2023-07-29T03:29:42;17.80;99.90
34460;DHT22;20704;51.260;22.558;2023-07-29T03:31:45;17.80;99.90
34460;DHT22;20704;51.260;22.558;2023-07-29T03:33:47;17.80;99.90
34460;DHT22;20704;51.260;22.558;2023-07-29T03:35:50;17.80;99.90
34460;DHT22;20704;51.260;22.558;2023-07-29T03:37:52;17.90;99.90
34460;DHT22;20704;51.260;22.558;2023-07-29T03:39:54;17.80;99.90
34460;DHT22;20704;51.260;22.558;2023-07-29T03:41:57;17.90;99.90
34460;DHT22;20704;51.260;22.558;2023-07-29T03:44:00;17.90;99.90
34460;DHT22;20704;51.260;22.558;2023-07-29T03:46:02;17.90;99.90
34460;DHT22;20704;51.260;22.558;2023-07-29T03:48:05;17.90;99.90
34460;DHT22;20704;51.260;22.558;2023-07-29T03:50:08;17.90;99.90
34460;DHT22;20704;51.260;22.558;2023-07-29T03:52:10;17.90;99.90
34460;DHT22;20704;51.260;22.558;2023-07-29T03:54:13;17.90;99.90
34460;DHT22;20704;51.260;22.558;2023-07-29T03:56:15;18.00;99.90
34460;DHT22;20704;51.260;22.558;2023-07-29T03:58:17;18.00;99.90
34460;DHT22;20704;51.260;22.558;2023-07-29T04:00:20;17.90;99.90
34460;DHT22;20704;51.260;22.558;2023-07-29T04:02:22;18.00;99.90
34460;DHT22;20704;51.260;22.558;2023-07-29T04:04:24;18.00;99.90
34460;DHT22;20704;51.260;22.558;2023-07-29T04:06:27;18.00;99.90
34460;DHT22;20704;51.260;22.558;2023-07-29T04:08:30;18.00;99.90
34460;DHT22;20704;51.260;22.558;2023-07-29T04:10:32;18.00;99.90
34460;DHT22;20704;51.260;22.558;2023-07-29T04:12:34;18.00;99.90
34460;DHT22;20704;51.260;22.558;2023-07-29T04:14:37;18.10;99.90
34460;DHT22;20704;51.260;22.558;2023-07-29T04:16:39;18.10;99.90
34460;DHT22;20704;51.260;22.558;2023-07-29T04:18:42;18.10;97.40
34460;DHT22;20704;51.260;22.558;2023-07-29T04:20:44;18.10;94.90
34460;DHT22;20704;51.260;22.558;2023-07-29T04:22:46;18.10;93.90
34460;DHT22;20704;51.260;22.558;2023-07-29T04:24:49;18.10;93.60
34460;DHT22;20704;51.260;22.558;2023-07-29T04:26:51;18.10;94.60
34460;DHT22;20704;51.260;22.558;2023-07-29T04:28:53;18.10;91.70
34460;DHT22;20704;51.260;22.558;2023-07-29T04:30:55;18.20;91.20
34460;DHT22;20704;51.260;22.558;2023-07-29T04:32:58;18.20;88.60
34460;DHT22;20704;51.260;22.558;2023-07-29T04:35:00;18.30;80.60
34460;DHT22;20704;51.260;22.558;2023-07-29T04:37:03;18.30;75.00
34460;DHT22;20704;51.260;22.558;2023-07-29T04:39:05;18.30;79.50
34460;DHT22;20704;51.260;22.558;2023-07-29T04:41:08;18.40;65.20
34460;DHT22;20704;51.260;22.558;2023-07-29T04:43:10;18.30;61.10
34460;DHT22;20704;51.260;22.558;2023-07-29T04:45:13;18.40;69.50
34460;DHT22;20704;51.260;22.558;2023-07-29T04:47:15;18.40;67.50
34460;DHT22;20704;51.260;22.558;2023-07-29T04:49:18;18.50;57.90
34460;DHT22;20704;51.260;22.558;2023-07-29T04:51:20;18.50;45.40
34460;DHT22;20704;51.260;22.558;2023-07-29T04:53:23;18.50;42.30
34460;DHT22;20704;51.260;22.558;2023-07-29T04:55:25;18.50;22.20
34460;DHT22;20704;51.260;22.558;2023-07-29T04:57:28;18.60;19.80
34460;DHT22;20704;51.260;22.558;2023-07-29T04:59:31;18.50;15.00
34460;DHT22;20704;51.260;22.558;2023-07-29T05:01:33;18.50;7.90
34460;DHT22;20704;51.260;22.558;2023-07-29T05:03:36;18.50;11.30
34460;DHT22;20704;51.260;22.558;2023-07-29T05:05:39;18.60;13.00
34460;DHT22;20704;51.260;22.558;2023-07-29T05:07:41;18.60;7.70
34460;DHT22;20704;51.260;22.558;2023-07-29T05:09:43;18.60;1.00
34460;DHT22;20704;51.260;22.558;2023-07-29T05:11:46;18.60;1.00
34460;DHT22;20704;51.260;22.558;2023-07-29T05:13:49;18.60;1.00
34460;DHT22;20704;51.260;22.558;2023-07-29T05:15:51;18.60;1.00
34460;DHT22;20704;51.260;22.558;2023-07-29T05:17:54;18.60;1.00
34460;DHT22;20704;51.260;22.558;2023-07-29T05:19:56;18.60;2.80
34460;DHT22;20704;51.260;22.558;2023-07-29T05:21:58;18.60;4.50
34460;DHT22;20704;51.260;22.558;2023-07-29T05:24:00;18.60;1.00
34460;DHT22;20704;51.260;22.558;2023-07-29T05:26:03;18.60;1.00
34460;DHT22;20704;51.260;22.558;2023-07-29T05:28:05;18.70;1.00
34460;DHT22;20704;51.260;22.558;2023-07-29T05:30:08;18.60;1.00
34460;DHT22;20704;51.260;22.558;2023-07-29T05:32:10;18.70;1.00
34460;DHT22;20704;51.260;22.558;2023-07-29T05:34:13;18.70;1.00
34460;DHT22;20704;51.260;22.558;2023-07-29T05:36:15;18.70;1.00
34460;DHT22;20704;51.260;22.558;2023-07-29T05:38:17;18.80;1.00
34460;DHT22;20704;51.260;22.558;2023-07-29T05:40:20;18.80;1.00
34460;DHT22;20704;51.260;22.558;2023-07-29T05:42:22;18.90;1.00
34460;DHT22;20704;51.260;22.558;2023-07-29T05:44:24;18.90;1.00
34460;DHT22;20704;51.260;22.558;2023-07-29T05:46:27;19.00;1.00
34460;DHT22;20704;51.260;22.558;2023-07-29T05:48:29;19.00;1.00
34460;DHT22;20704;51.260;22.558;2023-07-29T05:50:32;19.00;1.00
34460;DHT22;20704;51.260;22.558;2023-07-29T05:52:34;19.10;1.00
34460;DHT22;20704;51.260;22.558;2023-07-29T05:54:36;19.10;1.00
34460;DHT22;20704;51.260;22.558;2023-07-29T05:56:39;19.20;1.00
34460;DHT22;20704;51.260;22.558;2023-07-29T05:58:42;19.30;1.00
34460;DHT22;20704;51.260;22.558;2023-07-29T06:00:44;19.30;99.90
34460;DHT22;20704;51.260;22.558;2023-07-29T06:02:46;19.40;99.90
34460;DHT22;20704;51.260;22.558;2023-07-29T06:04:48;19.40;99.90
34460;DHT22;20704;51.260;22.558;2023-07-29T06:06:51;19.60;99.90
34460;DHT22;20704;51.260;22.558;2023-07-29T06:08:53;19.60;99.90
34460;DHT22;20704;51.260;22.558;2023-07-29T06:10:56;19.60;99.90
34460;DHT22;20704;51.260;22.558;2023-07-29T06:12:58;19.60;99.90
34460;DHT22;20704;51.260;22.558;2023-07-29T06:15:01;19.60;54.30
34460;DHT22;20704;51.260;22.558;2023-07-29T06:17:03;19.60;65.00
34460;DHT22;20704;51.260;22.558;2023-07-29T06:19:06;19.20;1.00
34460;DHT22;20704;51.260;22.558;2023-07-29T06:21:10;19.60;1.00
34460;DHT22;20704;51.260;22.558;2023-07-29T06:23:18;19.60;1.00
34460;DHT22;20704;51.260;22.558;2023-07-29T06:25:20;19.50;11.80
34460;DHT22;20704;51.260;22.558;2023-07-29T06:27:25;19.50;37.70
34460;DHT22;20704;51.260;22.558;2023-07-29T06:29:27;19.50;11.90
34460;DHT22;20704;51.260;22.558;2023-07-29T06:31:30;19.50;76.10
34460;DHT22;20704;51.260;22.558;2023-07-29T06:33:32;19.50;15.20
34460;DHT22;20704;51.260;22.558;2023-07-29T06:35:34;19.50;1.00
34460;DHT22;20704;51.260;22.558;2023-07-29T06:37:37;19.50;1.00
34460;DHT22;20704;51.260;22.558;2023-07-29T06:39:39;19.50;1.00
34460;DHT22;20704;51.260;22.558;2023-07-29T06:41:41;19.40;1.00
34460;DHT22;20704;51.260;22.558;2023-07-29T06:43:44;19.40;1.00
34460;DHT22;20704;51.260;22.558;2023-07-29T06:45:46;19.50;21.50
34460;DHT22;20704;51.260;22.558;2023-07-29T06:47:48;19.50;1.00
34460;DHT22;20704;51.260;22.558;2023-07-29T06:49:50;19.50;1.00
34460;DHT22;20704;51.260;22.558;2023-07-29T06:51:53;19.50;1.00
34460;DHT22;20704;51.260;22.558;2023-07-29T06:53:55;19.60;1.00
34460;DHT22;20704;51.260;22.558;2023-07-29T06:55:58;19.60;1.00
34460;DHT22;20704;51.260;22.558;2023-07-29T06:58:01;19.60;99.90
34460;DHT22;20704;51.260;22.558;2023-07-29T07:00:03;19.60;99.90
34460;DHT22;20704;51.260;22.558;2023-07-29T07:02:06;19.70;99.90
34460;DHT22;20704;51.260;22.558;2023-07-29T07:04:09;19.80;99.90
34460;DHT22;20704;51.260;22.558;2023-07-29T07:06:11;19.80;99.90
34460;DHT22;20704;51.260;22.558;2023-07-29T07:08:13;19.90;99.90
34460;DHT22;20704;51.260;22.558;2023-07-29T07:10:16;20.00;4.90
34460;DHT22;20704;51.260;22.558;2023-07-29T07:12:18;20.10;99.90
34460;DHT22;20704;51.260;22.558;2023-07-29T07:14:20;20.30;99.90
34460;DHT22;20704;51.260;22.558;2023-07-29T07:16:23;20.40;99.90
34460;DHT22;20704;51.260;22.558;2023-07-29T07:18:25;20.50;1.00
34460;DHT22;20704;51.260;22.558;2023-07-29T07:20:29;20.70;99.90
34460;DHT22;20704;51.260;22.558;2023-07-29T07:22:31;20.90;1.00
34460;DHT22;20704;51.260;22.558;2023-07-29T07:24:33;21.10;99.90
34460;DHT22;20704;51.260;22.558;2023-07-29T07:26:35;21.30;1.00
34460;DHT22;20704;51.260;22.558;2023-07-29T07:28:38;21.50;1.00
34460;DHT22;20704;51.260;22.558;2023-07-29T07:30:41;21.70;99.90
34460;DHT22;20704;51.260;22.558;2023-07-29T07:32:43;21.90;1.00
34460;DHT22;20704;51.260;22.558;2023-07-29T07:34:47;22.30;99.90
34460;DHT22;20704;51.260;22.558;2023-07-29T07:36:49;23.00;99.90
34460;DHT22;20704;51.260;22.558;2023-07-29T07:38:52;23.20;1.00
34460;DHT22;20704;51.260;22.558;2023-07-29T07:40:55;23.20;99.90
34460;DHT22;20704;51.260;22.558;2023-07-29T07:42:58;23.30;99.90
34460;DHT22;20704;51.260;22.558;2023-07-29T07:45:01;23.10;30.30
34460;DHT22;20704;51.260;22.558;2023-07-29T07:47:03;23.20;23.20
34460;DHT22;20704;51.260;22.558;2023-07-29T07:49:06;23.30;20.90
34460;DHT22;20704;51.260;22.558;2023-07-29T07:51:12;23.20;1.00
34460;DHT22;20704;51.260;22.558;2023-07-29T07:53:14;23.30;1.80
34460;DHT22;20704;51.260;22.558;2023-07-29T07:55:17;23.20;4.00
34460;DHT22;20704;51.260;22.558;2023-07-29T07:57:21;23.70;1.00
34460;DHT22;20704;51.260;22.558;2023-07-29T07:59:23;23.90;1.00
34460;DHT22;20704;51.260;22.558;2023-07-29T08:01:25;24.50;1.00
34460;DHT22;20704;51.260;22.558;2023-07-29T08:03:28;24.70;1.00
34460;DHT22;20704;51.260;22.558;2023-07-29T08:05:30;24.80;99.90
34460;DHT22;20704;51.260;22.558;2023-07-29T08:07:34;24.80;99.90
34460;DHT22;20704;51.260;22.558;2023-07-29T08:09:36;24.80;99.90
34460;DHT22;20704;51.260;22.558;2023-07-29T08:11:38;24.70;99.90
34460;DHT22;20704;51.260;22.558;2023-07-29T08:13:41;24.50;99.90
34460;DHT22;20704;51.260;22.558;2023-07-29T08:15:47;24.50;99.90
34460;DHT22;20704;51.260;22.558;2023-07-29T08:17:49;24.60;99.90
34460;DHT22;20704;51.260;22.558;2023-07-29T08:19:51;25.20;99.90
34460;DHT22;20704;51.260;22.558;2023-07-29T08:21:54;25.70;99.90
34460;DHT22;20704;51.260;22.558;2023-07-29T08:23:56;26.20;99.90
34460;DHT22;20704;51.260;22.558;2023-07-29T08:26:02;26.60;99.90
34460;DHT22;20704;51.260;22.558;2023-07-29T08:28:04;26.30;99.90
34460;DHT22;20704;51.260;22.558;2023-07-29T08:30:08;26.00;99.90
34460;DHT22;20704;51.260;22.558;2023-07-29T08:32:10;25.80;99.90
34460;DHT22;20704;51.260;22.558;2023-07-29T08:34:13;25.70;99.90
34460;DHT22;20704;51.260;22.558;2023-07-29T08:36:15;25.80;99.90
34460;DHT22;20704;51.260;22.558;2023-07-29T08:38:18;25.70;99.90
34460;DHT22;20704;51.260;22.558;2023-07-29T08:40:27;25.60;99.90
34460;DHT22;20704;51.260;22.558;2023-07-29T08:42:32;25.90;99.90
34460;DHT22;20704;51.260;22.558;2023-07-29T08:44:41;26.40;99.90
34460;DHT22;20704;51.260;22.558;2023-07-29T08:46:44;27.00;99.90
34460;DHT22;20704;51.260;22.558;2023-07-29T08:48:46;27.50;99.90
34460;DHT22;20704;51.260;22.558;2023-07-29T08:50:50;27.80;99.90
34460;DHT22;20704;51.260;22.558;2023-07-29T08:52:54;27.40;99.90
34460;DHT22;20704;51.260;22.558;2023-07-29T08:54:59;27.10;99.90
34460;DHT22;20704;51.260;22.558;2023-07-29T08:57:01;27.60;99.90
34460;DHT22;20704;51.260;22.558;2023-07-29T08:59:04;27.80;99.90
34460;DHT22;20704;51.260;22.558;2023-07-29T09:01:07;28.00;99.90
34460;DHT22;20704;51.260;22.558;2023-07-29T09:03:10;28.00;99.90
34460;DHT22;20704;51.260;22.558;2023-07-29T09:05:12;27.90;99.90
34460;DHT22;20704;51.260;22.558;2023-07-29T09:07:15;27.90;99.90
34460;DHT22;20704;51.260;22.558;2023-07-29T09:09:17;28.00;99.90
34460;DHT22;20704;51.260;22.558;2023-07-29T09:11:20;28.00;99.90
34460;DHT22;20704;51.260;22.558;2023-07-29T09:13:23;27.70;99.90
34460;DHT22;20704;51.260;22.558;2023-07-29T09:15:30;27.00;99.90
34460;DHT22;20704;51.260;22.558;2023-07-29T09:17:35;27.30;99.90
34460;DHT22;20704;51.260;22.558;2023-07-29T09:19:38;27.90;99.90
34460;DHT22;20704;51.260;22.558;2023-07-29T09:21:41;28.00;99.90
34460;DHT22;20704;51.260;22.558;2023-07-29T09:23:44;28.50;99.90
34460;DHT22;20704;51.260;22.558;2023-07-29T09:25:47;28.60;99.90
34460;DHT22;20704;51.260;22.558;2023-07-29T09:27:49;28.80;99.90
34460;DHT22;20704;51.260;22.558;2023-07-29T09:29:52;28.70;99.90
34460;DHT22;20704;51.260;22.558;2023-07-29T09:32:18;28.60;99.90
34460;DHT22;20704;51.260;22.558;2023-07-29T09:34:22;28.80;99.90
34460;DHT22;20704;51.260;22.558;2023-07-29T09:36:24;28.60;99.90
34460;DHT22;20704;51.260;22.558;2023-07-29T09:38:27;28.80;99.90
34460;DHT22;20704;51.260;22.558;2023-07-29T09:40:37;28.80;99.90
34460;DHT22;20704;51.260;22.558;2023-07-29T09:42:40;28.90;99.90
34460;DHT22;20704;51.260;22.558;2023-07-29T09:44:42;29.00;99.90
34460;DHT22;20704;51.260;22.558;2023-07-29T09:46:46;29.00;99.90
34460;DHT22;20704;51.260;22.558;2023-07-29T09:48:48;28.90;99.90
34460;DHT22;20704;51.260;22.558;2023-07-29T09:50:52;29.00;99.90
34460;DHT22;20704;51.260;22.558;2023-07-29T09:52:55;29.20;99.90
34460;DHT22;20704;51.260;22.558;2023-07-29T09:55:00;29.10;99.90
34460;DHT22;20704;51.260;22.558;2023-07-29T09:57:03;29.00;99.90
34460;DHT22;20704;51.260;22.558;2023-07-29T09:59:06;28.90;99.90
34460;DHT22;20704;51.260;22.558;2023-07-29T10:01:08;28.90;99.90
34460;DHT22;20704;51.260;22.558;2023-07-29T10:03:11;28.90;99.90
34460;DHT22;20704;51.260;22.558;2023-07-29T10:05:15;28.90;99.90
34460;DHT22;20704;51.260;22.558;2023-07-29T10:07:18;29.00;99.90
34460;DHT22;20704;51.260;22.558;2023-07-29T10:09:21;29.10;99.90
34460;DHT22;20704;51.260;22.558;2023-07-29T10:11:24;29.00;99.90
34460;DHT22;20704;51.260;22.558;2023-07-29T10:13:27;29.00;99.90
34460;DHT22;20704;51.260;22.558;2023-07-29T10:15:31;29.00;99.90
34460;DHT22;20704;51.260;22.558;2023-07-29T10:17:35;29.00;99.90
34460;DHT22;20704;51.260;22.558;2023-07-29T10:19:39;29.00;99.90
34460;DHT22;20704;51.260;22.558;2023-07-29T10:21:44;28.80;99.90
34460;DHT22;20704;51.260;22.558;2023-07-29T10:23:53;28.70;99.90
34460;DHT22;20704;51.260;22.558;2023-07-29T10:26:07;28.50;99.90
34460;DHT22;20704;51.260;22.558;2023-07-29T10:28:12;28.50;99.90
34460;DHT22;20704;51.260;22.558;2023-07-29T10:30:17;28.60;99.90
34460;DHT22;20704;51.260;22.558;2023-07-29T10:32:26;28.80;99.90
34460;DHT22;20704;51.260;22.558;2023-07-29T10:34:33;28.80;99.90
34460;DHT22;20704;51.260;22.558;2023-07-29T10:36:38;28.60;99.90
34460;DHT22;20704;51.260;22.558;2023-07-29T10:38:41;28.70;99.90
34460;DHT22;20704;51.260;22.558;2023-07-29T10:40:54;28.70;99.90
34460;DHT22;20704;51.260;22.558;2023-07-29T10:43:13;28.50;99.90
34460;DHT22;20704;51.260;22.558;2023-07-29T10:45:21;28.60;99.90
34460;DHT22;20704;51.260;22.558;2023-07-29T10:47:25;28.60;99.90
34460;DHT22;20704;51.260;22.558;2023-07-29T10:49:29;28.70;99.90
34460;DHT22;20704;51.260;22.558;2023-07-29T10:51:37;28.60;99.90
34460;DHT22;20704;51.260;22.558;2023-07-29T10:53:39;28.60;99.90
34460;DHT22;20704;51.260;22.558;2023-07-29T10:55:43;28.20;99.90
34460;DHT22;20704;51.260;22.558;2023-07-29T10:57:46;28.10;99.90
34460;DHT22;20704;51.260;22.558;2023-07-29T10:59:56;28.10;99.90
34460;DHT22;20704;51.260;22.558;2023-07-29T11:01:59;27.90;99.90
34460;DHT22;20704;51.260;22.558;2023-07-29T11:04:25;28.00;99.90
34460;DHT22;20704;51.260;22.558;2023-07-29T11:06:29;28.00;99.90
34460;DHT22;20704;51.260;22.558;2023-07-29T11:08:31;28.10;99.90
34460;DHT22;20704;51.260;22.558;2023-07-29T11:10:42;28.10;99.90
34460;DHT22;20704;51.260;22.558;2023-07-29T11:14:49;28.10;99.90
34460;DHT22;20704;51.260;22.558;2023-07-29T11:16:52;28.00;99.90
34460;DHT22;20704;51.260;22.558;2023-07-29T11:18:58;27.90;99.90
34460;DHT22;20704;51.260;22.558;2023-07-29T11:21:03;28.00;99.90
34460;DHT22;20704;51.260;22.558;2023-07-29T11:23:06;28.00;99.90
34460;DHT22;20704;51.260;22.558;2023-07-29T11:25:10;27.80;99.90
34460;DHT22;20704;51.260;22.558;2023-07-29T11:27:13;27.80;99.90
34460;DHT22;20704;51.260;22.558;2023-07-29T11:29:16;27.70;99.90
34460;DHT22;20704;51.260;22.558;2023-07-29T11:31:18;27.80;99.90
34460;DHT22;20704;51.260;22.558;2023-07-29T11:33:26;27.70;99.90
34460;DHT22;20704;51.260;22.558;2023-07-29T11:35:32;27.70;99.90
34460;DHT22;20704;51.260;22.558;2023-07-29T11:37:35;27.70;99.90
34460;DHT22;20704;51.260;22.558;2023-07-29T11:39:41;27.60;99.90
34460;DHT22;20704;51.260;22.558;2023-07-29T11:41:43;27.60;99.90
34460;DHT22;20704;51.260;22.558;2023-07-29T11:43:45;27.70;99.90
34460;DHT22;20704;51.260;22.558;2023-07-29T11:45:48;27.80;99.90
34460;DHT22;20704;51.260;22.558;2023-07-29T11:47:53;27.80;99.90
34460;DHT22;20704;51.260;22.558;2023-07-29T11:49:58;27.80;99.90
34460;DHT22;20704;51.260;22.558;2023-07-29T11:52:10;27.60;99.90
34460;DHT22;20704;51.260;22.558;2023-07-29T11:54:12;27.60;99.90
34460;DHT22;20704;51.260;22.558;2023-07-29T11:56:14;27.70;99.90
34460;DHT22;20704;51.260;22.558;2023-07-29T11:58:17;27.70;99.90
34460;DHT22;20704;51.260;22.558;2023-07-29T12:00:20;27.60;99.90
34460;DHT22;20704;51.260;22.558;2023-07-29T12:02:24;27.60;99.90
34460;DHT22;20704;51.260;22.558;2023-07-29T12:04:28;27.40;99.90
34460;DHT22;20704;51.260;22.558;2023-07-29T12:06:31;27.60;99.90
34460;DHT22;20704;51.260;22.558;2023-07-29T12:08:34;27.50;99.90
34460;DHT22;20704;51.260;22.558;2023-07-29T12:10:37;27.50;99.90
34460;DHT22;20704;51.260;22.558;2023-07-29T12:12:47;27.50;99.90
34460;DHT22;20704;51.260;22.558;2023-07-29T12:14:50;27.40;99.90
34460;DHT22;20704;51.260;22.558;2023-07-29T12:16:52;27.50;99.90
34460;DHT22;20704;51.260;22.558;2023-07-29T12:18:55;27.50;99.90
34460;DHT22;20704;51.260;22.558;2023-07-29T12:20:58;27.50;99.90
34460;DHT22;20704;51.260;22.558;2023-07-29T12:23:01;27.60;99.90
34460;DHT22;20704;51.260;22.558;2023-07-29T12:25:05;27.50;99.90
34460;DHT22;20704;51.260;22.558;2023-07-29T12:27:12;27.50;99.90
34460;DHT22;20704;51.260;22.558;2023-07-29T12:29:16;27.50;99.90
34460;DHT22;20704;51.260;22.558;2023-07-29T12:31:19;27.60;99.90
34460;DHT22;20704;51.260;22.558;2023-07-29T12:33:35;27.60;99.90
34460;DHT22;20704;51.260;22.558;2023-07-29T12:35:38;27.60;99.90
34460;DHT22;20704;51.260;22.558;2023-07-29T12:37:40;27.70;99.90
34460;DHT22;20704;51.260;22.558;2023-07-29T12:39:49;27.50;99.90
34460;DHT22;20704;51.260;22.558;2023-07-29T12:41:53;27.40;99.90
34460;DHT22;20704;51.260;22.558;2023-07-29T12:43:56;27.20;99.90
34460;DHT22;20704;51.260;22.558;2023-07-29T12:45:58;27.30;99.90
34460;DHT22;20704;51.260;22.558;2023-07-29T12:48:01;27.30;99.90
34460;DHT22;20704;51.260;22.558;2023-07-29T12:50:03;27.30;99.90
34460;DHT22;20704;51.260;22.558;2023-07-29T12:52:06;27.40;99.90
34460;DHT22;20704;51.260;22.558;2023-07-29T12:54:08;27.50;99.90
34460;DHT22;20704;51.260;22.558;2023-07-29T12:56:11;27.40;99.90